sensor_id;sensor_type;location;lat;lon;timestamp;P1;durP1;ratioP1;P2;durP2;ratioP2
44822;SDS011;51097;51.984;5.650;2023-12-22T00:01:38;10.80;;;3.03;;
44822;SDS011;51097;51.984;5.650;2023-12-22T00:04:04;12.55;;;3.67;;
44822;SDS011;51097;51.984;5.650;2023-12-22T00:06:31;8.10;;;1.90;;
44822;SDS011;51097;51.984;5.650;2023-12-22T00:08:57;13.55;;;2.67;;
44822;SDS011;51097;51.984;5.650;2023-12-22T00:11:23;14.73;;;2.60;;
44822;SDS011;51097;51.984;5.650;2023-12-22T00:13:48;7.93;;;1.63;;
44822;SDS011;51097;51.984;5.650;2023-12-22T00:16:14;8.85;;;2.10;;
44822;SDS011;51097;51.984;5.650;2023-12-22T00:18:40;14.27;;;3.15;;
44822;SDS011;51097;51.984;5.650;2023-12-22T00:21:09;15.63;;;2.33;;
44822;SDS011;51097;51.984;5.650;2023-12-22T00:23:35;10.82;;;2.65;;
44822;SDS011;51097;51.984;5.650;2023-12-22T00:26:01;12.90;;;2.75;;
44822;SDS011;51097;51.984;5.650;2023-12-22T00:28:26;16.00;;;2.67;;
44822;SDS011;51097;51.984;5.650;2023-12-22T00:30:52;8.70;;;1.70;;
44822;SDS011;51097;51.984;5.650;2023-12-22T00:33:17;12.35;;;1.63;;
44822;SDS011;51097;51.984;5.650;2023-12-22T00:35:43;4.97;;;1.48;;
44822;SDS011;51097;51.984;5.650;2023-12-22T00:38:08;7.45;;;1.08;;
44822;SDS011;51097;51.984;5.650;2023-12-22T00:40:35;5.80;;;1.30;;
44822;SDS011;51097;51.984;5.650;2023-12-22T00:43:00;4.03;;;1.40;;
44822;SDS011;51097;51.984;5.650;2023-12-22T00:45:26;6.57;;;1.20;;
44822;SDS011;51097;51.984;5.650;2023-12-22T00:47:51;5.25;;;1.48;;
44822;SDS011;51097;51.984;5.650;2023-12-22T00:50:17;1.30;;;0.50;;
44822;SDS011;51097;51.984;5.650;2023-12-22T00:52:43;4.55;;;0.70;;
44822;SDS011;51097;51.984;5.650;2023-12-22T00:55:09;4.85;;;1.17;;
44822;SDS011;51097;51.984;5.650;2023-12-22T00:57:34;5.20;;;0.95;;
44822;SDS011;51097;51.984;5.650;2023-12-22T01:00:00;3.97;;;1.33;;
44822;SDS011;51097;51.984;5.650;2023-12-22T01:02:25;3.10;;;0.90;;
44822;SDS011;51097;51.984;5.650;2023-12-22T01:04:51;4.57;;;1.25;;
44822;SDS011;51097;51.984;5.650;2023-12-22T01:07:17;6.25;;;1.85;;
44822;SDS011;51097;51.984;5.650;2023-12-22T01:09:43;6.88;;;1.25;;
44822;SDS011;51097;51.984;5.650;2023-12-22T01:12:09;5.65;;;0.90;;
44822;SDS011;51097;51.984;5.650;2023-12-22T01:14:35;5.03;;;1.27;;
44822;SDS011;51097;51.984;5.650;2023-12-22T01:17:01;6.93;;;1.88;;
44822;SDS011;51097;51.984;5.650;2023-12-22T01:19:27;5.72;;;1.48;;
44822;SDS011;51097;51.984;5.650;2023-12-22T01:21:52;3.72;;;1.27;;
44822;SDS011;51097;51.984;5.650;2023-12-22T01:24:18;7.05;;;1.02;;
44822;SDS011;51097;51.984;5.650;2023-12-22T01:26:44;10.35;;;1.25;;
44822;SDS011;51097;51.984;5.650;2023-12-22T01:29:09;6.22;;;1.20;;
44822;SDS011;51097;51.984;5.650;2023-12-22T01:31:35;5.90;;;1.02;;
44822;SDS011;51097;51.984;5.650;2023-12-22T01:34:00;11.23;;;2.13;;
44822;SDS011;51097;51.984;5.650;2023-12-22T01:36:26;8.15;;;1.88;;
44822;SDS011;51097;51.984;5.650;2023-12-22T01:38:51;11.13;;;2.10;;
44822;SDS011;51097;51.984;5.650;2023-12-22T01:41:17;8.88;;;1.35;;
44822;SDS011;51097;51.984;5.650;2023-12-22T01:43:43;8.95;;;2.10;;
44822;SDS011;51097;51.984;5.650;2023-12-22T01:46:08;6.22;;;1.15;;
44822;SDS011;51097;51.984;5.650;2023-12-22T01:48:35;6.40;;;1.60;;
44822;SDS011;51097;51.984;5.650;2023-12-22T01:51:01;8.90;;;2.78;;
44822;SDS011;51097;51.984;5.650;2023-12-22T01:53:29;7.80;;;2.08;;
44822;SDS011;51097;51.984;5.650;2023-12-22T01:55:55;14.18;;;2.22;;
44822;SDS011;51097;51.984;5.650;2023-12-22T01:58:24;10.15;;;2.17;;
44822;SDS011;51097;51.984;5.650;2023-12-22T02:00:54;9.48;;;1.15;;
44822;SDS011;51097;51.984;5.650;2023-12-22T02:03:21;10.48;;;1.60;;
44822;SDS011;51097;51.984;5.650;2023-12-22T02:05:47;13.43;;;1.95;;
44822;SDS011;51097;51.984;5.650;2023-12-22T02:08:12;9.10;;;1.67;;
44822;SDS011;51097;51.984;5.650;2023-12-22T02:10:40;12.85;;;2.10;;
44822;SDS011;51097;51.984;5.650;2023-12-22T02:13:06;7.65;;;2.17;;
44822;SDS011;51097;51.984;5.650;2023-12-22T02:15:33;12.75;;;2.90;;
44822;SDS011;51097;51.984;5.650;2023-12-22T02:18:01;11.73;;;2.92;;
44822;SDS011;51097;51.984;5.650;2023-12-22T02:20:28;13.73;;;1.90;;
44822;SDS011;51097;51.984;5.650;2023-12-22T02:22:55;10.40;;;1.83;;
44822;SDS011;51097;51.984;5.650;2023-12-22T02:25:20;14.10;;;2.33;;
44822;SDS011;51097;51.984;5.650;2023-12-22T02:27:50;8.35;;;2.92;;
44822;SDS011;51097;51.984;5.650;2023-12-22T02:30:42;8.85;;;2.40;;
44822;SDS011;51097;51.984;5.650;2023-12-22T02:33:19;14.68;;;2.55;;
44822;SDS011;51097;51.984;5.650;2023-12-22T02:35:47;15.23;;;2.38;;
44822;SDS011;51097;51.984;5.650;2023-12-22T02:38:15;13.45;;;2.78;;
44822;SDS011;51097;51.984;5.650;2023-12-22T02:40:42;7.90;;;2.33;;
44822;SDS011;51097;51.984;5.650;2023-12-22T02:43:09;6.88;;;2.35;;
44822;SDS011;51097;51.984;5.650;2023-12-22T02:45:35;12.27;;;3.30;;
44822;SDS011;51097;51.984;5.650;2023-12-22T02:48:00;21.25;;;4.32;;
44822;SDS011;51097;51.984;5.650;2023-12-22T02:50:26;13.00;;;2.60;;
44822;SDS011;51097;51.984;5.650;2023-12-22T02:52:51;9.45;;;2.10;;
44822;SDS011;51097;51.984;5.650;2023-12-22T02:55:17;9.57;;;3.63;;
44822;SDS011;51097;51.984;5.650;2023-12-22T02:57:42;12.55;;;2.42;;
44822;SDS011;51097;51.984;5.650;2023-12-22T03:00:08;12.40;;;2.70;;
44822;SDS011;51097;51.984;5.650;2023-12-22T03:02:34;15.45;;;3.50;;
44822;SDS011;51097;51.984;5.650;2023-12-22T03:04:59;13.05;;;2.67;;
44822;SDS011;51097;51.984;5.650;2023-12-22T03:07:25;17.92;;;3.08;;
44822;SDS011;51097;51.984;5.650;2023-12-22T03:09:51;12.95;;;4.10;;
44822;SDS011;51097;51.984;5.650;2023-12-22T03:12:16;22.23;;;3.60;;
44822;SDS011;51097;51.984;5.650;2023-12-22T03:14:42;18.02;;;3.13;;
44822;SDS011;51097;51.984;5.650;2023-12-22T03:17:07;24.50;;;4.13;;
44822;SDS011;51097;51.984;5.650;2023-12-22T03:19:33;17.80;;;3.35;;
44822;SDS011;51097;51.984;5.650;2023-12-22T03:21:59;12.13;;;2.72;;
44822;SDS011;51097;51.984;5.650;2023-12-22T03:24:25;15.48;;;3.78;;
44822;SDS011;51097;51.984;5.650;2023-12-22T03:26:52;11.45;;;2.67;;
44822;SDS011;51097;51.984;5.650;2023-12-22T03:29:18;11.40;;;2.90;;
44822;SDS011;51097;51.984;5.650;2023-12-22T03:31:44;14.52;;;2.83;;
44822;SDS011;51097;51.984;5.650;2023-12-22T03:34:10;18.80;;;3.42;;
44822;SDS011;51097;51.984;5.650;2023-12-22T03:36:36;15.05;;;3.40;;
44822;SDS011;51097;51.984;5.650;2023-12-22T03:39:02;13.57;;;2.70;;
44822;SDS011;51097;51.984;5.650;2023-12-22T03:41:28;11.45;;;3.30;;
44822;SDS011;51097;51.984;5.650;2023-12-22T03:43:54;14.73;;;2.47;;
44822;SDS011;51097;51.984;5.650;2023-12-22T03:46:23;13.93;;;2.13;;
44822;SDS011;51097;51.984;5.650;2023-12-22T03:48:52;17.70;;;3.38;;
44822;SDS011;51097;51.984;5.650;2023-12-22T03:51:18;7.35;;;3.00;;
44822;SDS011;51097;51.984;5.650;2023-12-22T03:53:43;8.32;;;2.38;;
44822;SDS011;51097;51.984;5.650;2023-12-22T03:56:09;14.73;;;2.80;;
44822;SDS011;51097;51.984;5.650;2023-12-22T03:58:37;13.63;;;2.25;;
44822;SDS011;51097;51.984;5.650;2023-12-22T04:01:03;9.32;;;2.20;;
44822;SDS011;51097;51.984;5.650;2023-12-22T04:03:29;8.07;;;1.55;;
44822;SDS011;51097;51.984;5.650;2023-12-22T04:05:55;5.70;;;1.02;;
44822;SDS011;51097;51.984;5.650;2023-12-22T04:08:20;4.70;;;1.30;;
44822;SDS011;51097;51.984;5.650;2023-12-22T04:10:46;7.32;;;1.58;;
44822;SDS011;51097;51.984;5.650;2023-12-22T04:13:12;6.47;;;1.30;;
44822;SDS011;51097;51.984;5.650;2023-12-22T04:15:38;6.20;;;1.00;;
44822;SDS011;51097;51.984;5.650;2023-12-22T04:18:04;6.18;;;1.20;;
44822;SDS011;51097;51.984;5.650;2023-12-22T04:20:30;5.25;;;1.75;;
44822;SDS011;51097;51.984;5.650;2023-12-22T04:22:56;5.85;;;1.75;;
44822;SDS011;51097;51.984;5.650;2023-12-22T04:25:22;6.15;;;1.85;;
44822;SDS011;51097;51.984;5.650;2023-12-22T04:27:49;4.10;;;1.23;;
44822;SDS011;51097;51.984;5.650;2023-12-22T04:30:15;9.60;;;1.73;;
44822;SDS011;51097;51.984;5.650;2023-12-22T04:32:44;9.98;;;1.30;;
44822;SDS011;51097;51.984;5.650;2023-12-22T04:35:09;9.90;;;2.53;;
44822;SDS011;51097;51.984;5.650;2023-12-22T04:37:35;7.88;;;1.38;;
44822;SDS011;51097;51.984;5.650;2023-12-22T04:40:01;7.20;;;1.50;;
44822;SDS011;51097;51.984;5.650;2023-12-22T04:42:26;7.55;;;1.20;;
44822;SDS011;51097;51.984;5.650;2023-12-22T04:44:53;7.85;;;1.50;;
44822;SDS011;51097;51.984;5.650;2023-12-22T04:47:18;4.15;;;1.50;;
44822;SDS011;51097;51.984;5.650;2023-12-22T04:49:44;9.35;;;2.60;;
44822;SDS011;51097;51.984;5.650;2023-12-22T04:52:10;8.15;;;2.22;;
44822;SDS011;51097;51.984;5.650;2023-12-22T04:54:36;10.50;;;1.83;;
44822;SDS011;51097;51.984;5.650;2023-12-22T04:57:02;11.52;;;1.77;;
44822;SDS011;51097;51.984;5.650;2023-12-22T04:59:27;6.65;;;1.30;;
44822;SDS011;51097;51.984;5.650;2023-12-22T05:01:53;5.72;;;2.03;;
44822;SDS011;51097;51.984;5.650;2023-12-22T05:04:19;13.57;;;2.17;;
44822;SDS011;51097;51.984;5.650;2023-12-22T05:06:44;18.92;;;3.28;;
44822;SDS011;51097;51.984;5.650;2023-12-22T05:09:10;12.15;;;2.15;;
44822;SDS011;51097;51.984;5.650;2023-12-22T05:11:36;14.82;;;2.63;;
44822;SDS011;51097;51.984;5.650;2023-12-22T05:14:02;18.60;;;2.90;;
44822;SDS011;51097;51.984;5.650;2023-12-22T05:16:27;10.75;;;2.42;;
44822;SDS011;51097;51.984;5.650;2023-12-22T05:18:56;16.98;;;2.80;;
44822;SDS011;51097;51.984;5.650;2023-12-22T05:21:22;11.15;;;2.72;;
44822;SDS011;51097;51.984;5.650;2023-12-22T05:23:48;17.65;;;3.00;;
44822;SDS011;51097;51.984;5.650;2023-12-22T05:26:18;13.90;;;3.20;;
44822;SDS011;51097;51.984;5.650;2023-12-22T05:28:44;14.02;;;3.92;;
44822;SDS011;51097;51.984;5.650;2023-12-22T05:31:10;18.70;;;3.08;;
44822;SDS011;51097;51.984;5.650;2023-12-22T05:33:36;15.88;;;5.32;;
44822;SDS011;51097;51.984;5.650;2023-12-22T05:36:01;20.23;;;3.20;;
44822;SDS011;51097;51.984;5.650;2023-12-22T05:38:27;14.68;;;2.63;;
44822;SDS011;51097;51.984;5.650;2023-12-22T05:40:53;16.48;;;2.78;;
44822;SDS011;51097;51.984;5.650;2023-12-22T05:43:18;14.15;;;3.45;;
44822;SDS011;51097;51.984;5.650;2023-12-22T05:45:44;15.40;;;2.88;;
44822;SDS011;51097;51.984;5.650;2023-12-22T05:48:09;24.10;;;3.50;;
44822;SDS011;51097;51.984;5.650;2023-12-22T05:50:35;23.90;;;3.38;;
44822;SDS011;51097;51.984;5.650;2023-12-22T05:53:00;12.85;;;2.53;;
44822;SDS011;51097;51.984;5.650;2023-12-22T05:55:26;12.77;;;2.10;;
44822;SDS011;51097;51.984;5.650;2023-12-22T05:57:51;21.45;;;3.70;;
44822;SDS011;51097;51.984;5.650;2023-12-22T06:00:18;15.52;;;2.58;;
44822;SDS011;51097;51.984;5.650;2023-12-22T06:02:44;14.48;;;2.08;;
44822;SDS011;51097;51.984;5.650;2023-12-22T06:05:10;19.20;;;2.58;;
44822;SDS011;51097;51.984;5.650;2023-12-22T06:07:36;10.48;;;2.35;;
44822;SDS011;51097;51.984;5.650;2023-12-22T06:10:01;10.73;;;3.35;;
44822;SDS011;51097;51.984;5.650;2023-12-22T06:12:27;14.13;;;2.97;;
44822;SDS011;51097;51.984;5.650;2023-12-22T06:14:52;11.15;;;2.58;;
44822;SDS011;51097;51.984;5.650;2023-12-22T06:17:18;8.00;;;2.20;;
44822;SDS011;51097;51.984;5.650;2023-12-22T06:19:44;10.95;;;3.53;;
44822;SDS011;51097;51.984;5.650;2023-12-22T06:22:09;9.07;;;3.17;;
44822;SDS011;51097;51.984;5.650;2023-12-22T06:24:35;11.23;;;2.63;;
44822;SDS011;51097;51.984;5.650;2023-12-22T06:27:01;10.73;;;2.33;;
44822;SDS011;51097;51.984;5.650;2023-12-22T06:29:26;12.05;;;2.92;;
44822;SDS011;51097;51.984;5.650;2023-12-22T06:31:52;11.73;;;2.60;;
44822;SDS011;51097;51.984;5.650;2023-12-22T06:34:18;13.07;;;2.63;;
44822;SDS011;51097;51.984;5.650;2023-12-22T06:36:44;12.32;;;2.25;;
44822;SDS011;51097;51.984;5.650;2023-12-22T06:39:10;11.27;;;2.50;;
44822;SDS011;51097;51.984;5.650;2023-12-22T06:41:35;14.27;;;2.53;;
44822;SDS011;51097;51.984;5.650;2023-12-22T06:44:01;14.73;;;2.78;;
44822;SDS011;51097;51.984;5.650;2023-12-22T06:46:27;17.35;;;3.95;;
44822;SDS011;51097;51.984;5.650;2023-12-22T06:48:54;16.67;;;2.55;;
44822;SDS011;51097;51.984;5.650;2023-12-22T06:51:21;19.15;;;4.22;;
44822;SDS011;51097;51.984;5.650;2023-12-22T06:53:48;10.13;;;2.30;;
44822;SDS011;51097;51.984;5.650;2023-12-22T06:56:18;15.55;;;3.20;;
44822;SDS011;51097;51.984;5.650;2023-12-22T06:58:45;20.75;;;3.95;;
44822;SDS011;51097;51.984;5.650;2023-12-22T07:01:24;14.32;;;3.00;;
44822;SDS011;51097;51.984;5.650;2023-12-22T07:03:51;14.35;;;3.15;;
44822;SDS011;51097;51.984;5.650;2023-12-22T07:06:18;13.38;;;3.00;;
44822;SDS011;51097;51.984;5.650;2023-12-22T07:08:44;13.50;;;3.03;;
44822;SDS011;51097;51.984;5.650;2023-12-22T07:11:42;16.75;;;3.13;;
44822;SDS011;51097;51.984;5.650;2023-12-22T07:14:13;17.35;;;3.63;;
44822;SDS011;51097;51.984;5.650;2023-12-22T07:16:40;15.38;;;3.28;;
44822;SDS011;51097;51.984;5.650;2023-12-22T07:19:07;19.80;;;3.90;;
44822;SDS011;51097;51.984;5.650;2023-12-22T07:21:33;16.88;;;3.03;;
44822;SDS011;51097;51.984;5.650;2023-12-22T07:23:58;16.90;;;4.13;;
44822;SDS011;51097;51.984;5.650;2023-12-22T07:26:24;17.45;;;4.45;;
44822;SDS011;51097;51.984;5.650;2023-12-22T07:28:51;22.48;;;3.95;;
44822;SDS011;51097;51.984;5.650;2023-12-22T07:31:20;16.08;;;3.08;;
44822;SDS011;51097;51.984;5.650;2023-12-22T07:33:45;21.83;;;3.58;;
44822;SDS011;51097;51.984;5.650;2023-12-22T07:36:11;15.43;;;4.68;;
44822;SDS011;51097;51.984;5.650;2023-12-22T07:38:37;19.88;;;5.00;;
44822;SDS011;51097;51.984;5.650;2023-12-22T07:41:04;24.65;;;4.13;;
44822;SDS011;51097;51.984;5.650;2023-12-22T07:43:30;15.40;;;4.18;;
44822;SDS011;51097;51.984;5.650;2023-12-22T07:45:55;26.80;;;5.35;;
44822;SDS011;51097;51.984;5.650;2023-12-22T07:48:21;22.95;;;5.50;;
44822;SDS011;51097;51.984;5.650;2023-12-22T07:50:46;21.63;;;4.60;;
44822;SDS011;51097;51.984;5.650;2023-12-22T07:53:12;18.15;;;5.55;;
44822;SDS011;51097;51.984;5.650;2023-12-22T07:55:37;20.65;;;4.45;;
44822;SDS011;51097;51.984;5.650;2023-12-22T07:58:06;29.27;;;4.95;;
44822;SDS011;51097;51.984;5.650;2023-12-22T08:00:33;23.42;;;4.53;;
44822;SDS011;51097;51.984;5.650;2023-12-22T08:02:58;20.27;;;4.53;;
44822;SDS011;51097;51.984;5.650;2023-12-22T08:05:25;15.07;;;3.55;;
44822;SDS011;51097;51.984;5.650;2023-12-22T08:07:50;19.80;;;4.88;;
44822;SDS011;51097;51.984;5.650;2023-12-22T08:10:16;15.20;;;3.08;;
44822;SDS011;51097;51.984;5.650;2023-12-22T08:12:42;15.00;;;2.90;;
44822;SDS011;51097;51.984;5.650;2023-12-22T08:15:08;16.67;;;3.58;;
44822;SDS011;51097;51.984;5.650;2023-12-22T08:17:37;18.80;;;5.18;;
44822;SDS011;51097;51.984;5.650;2023-12-22T08:20:10;27.60;;;3.80;;
44822;SDS011;51097;51.984;5.650;2023-12-22T08:22:36;17.08;;;3.63;;
44822;SDS011;51097;51.984;5.650;2023-12-22T08:25:01;24.58;;;4.45;;
44822;SDS011;51097;51.984;5.650;2023-12-22T08:27:27;20.35;;;5.03;;
44822;SDS011;51097;51.984;5.650;2023-12-22T08:29:52;24.75;;;4.55;;
44822;SDS011;51097;51.984;5.650;2023-12-22T08:32:18;22.38;;;4.68;;
44822;SDS011;51097;51.984;5.650;2023-12-22T08:34:44;18.85;;;4.32;;
44822;SDS011;51097;51.984;5.650;2023-12-22T08:37:10;18.40;;;4.72;;
44822;SDS011;51097;51.984;5.650;2023-12-22T08:39:36;13.07;;;4.35;;
44822;SDS011;51097;51.984;5.650;2023-12-22T08:42:01;18.92;;;4.28;;
44822;SDS011;51097;51.984;5.650;2023-12-22T08:44:27;21.73;;;4.22;;
44822;SDS011;51097;51.984;5.650;2023-12-22T08:46:52;17.23;;;3.83;;
44822;SDS011;51097;51.984;5.650;2023-12-22T08:49:18;19.55;;;3.30;;
44822;SDS011;51097;51.984;5.650;2023-12-22T08:51:44;12.35;;;2.95;;
44822;SDS011;51097;51.984;5.650;2023-12-22T08:54:09;11.93;;;2.28;;
44822;SDS011;51097;51.984;5.650;2023-12-22T08:56:35;8.70;;;2.15;;
44822;SDS011;51097;51.984;5.650;2023-12-22T08:59:00;10.50;;;2.42;;
44822;SDS011;51097;51.984;5.650;2023-12-22T09:01:26;7.10;;;1.90;;
44822;SDS011;51097;51.984;5.650;2023-12-22T09:03:51;7.97;;;2.25;;
44822;SDS011;51097;51.984;5.650;2023-12-22T09:06:18;6.70;;;1.67;;
44822;SDS011;51097;51.984;5.650;2023-12-22T09:08:44;8.60;;;1.77;;
44822;SDS011;51097;51.984;5.650;2023-12-22T09:11:11;12.95;;;2.85;;
44822;SDS011;51097;51.984;5.650;2023-12-22T09:13:37;11.45;;;2.70;;
44822;SDS011;51097;51.984;5.650;2023-12-22T09:16:03;12.75;;;3.20;;
44822;SDS011;51097;51.984;5.650;2023-12-22T09:18:29;18.75;;;3.13;;
44822;SDS011;51097;51.984;5.650;2023-12-22T09:20:56;15.68;;;3.17;;
44822;SDS011;51097;51.984;5.650;2023-12-22T09:23:21;8.30;;;2.90;;
44822;SDS011;51097;51.984;5.650;2023-12-22T09:25:47;14.93;;;3.50;;
44822;SDS011;51097;51.984;5.650;2023-12-22T09:28:13;17.65;;;2.63;;
44822;SDS011;51097;51.984;5.650;2023-12-22T09:30:39;10.15;;;2.55;;
44822;SDS011;51097;51.984;5.650;2023-12-22T09:33:04;10.73;;;1.80;;
44822;SDS011;51097;51.984;5.650;2023-12-22T09:35:30;3.90;;;1.13;;
44822;SDS011;51097;51.984;5.650;2023-12-22T09:37:55;5.22;;;1.20;;
44822;SDS011;51097;51.984;5.650;2023-12-22T09:40:21;4.68;;;1.55;;
44822;SDS011;51097;51.984;5.650;2023-12-22T09:42:47;10.52;;;1.67;;
44822;SDS011;51097;51.984;5.650;2023-12-22T09:45:14;4.53;;;0.90;;
44822;SDS011;51097;51.984;5.650;2023-12-22T09:47:45;1.25;;;0.60;;
44822;SDS011;51097;51.984;5.650;2023-12-22T09:50:11;2.47;;;0.60;;
44822;SDS011;51097;51.984;5.650;2023-12-22T09:52:38;1.38;;;0.57;;
44822;SDS011;51097;51.984;5.650;2023-12-22T09:55:07;0.90;;;0.60;;
44822;SDS011;51097;51.984;5.650;2023-12-22T09:57:33;3.13;;;1.10;;
44822;SDS011;51097;51.984;5.650;2023-12-22T09:59:59;1.27;;;0.70;;
44822;SDS011;51097;51.984;5.650;2023-12-22T10:02:31;2.90;;;0.85;;
44822;SDS011;51097;51.984;5.650;2023-12-22T10:04:59;5.18;;;1.00;;
44822;SDS011;51097;51.984;5.650;2023-12-22T10:07:25;5.50;;;1.30;;
44822;SDS011;51097;51.984;5.650;2023-12-22T10:09:51;1.58;;;0.95;;
44822;SDS011;51097;51.984;5.650;2023-12-22T10:12:18;8.57;;;1.30;;
44822;SDS011;51097;51.984;5.650;2023-12-22T10:14:45;5.28;;;1.90;;
44822;SDS011;51097;51.984;5.650;2023-12-22T10:17:12;8.73;;;1.75;;
44822;SDS011;51097;51.984;5.650;2023-12-22T10:19:39;10.48;;;2.10;;
44822;SDS011;51097;51.984;5.650;2023-12-22T10:22:04;10.85;;;2.30;;
44822;SDS011;51097;51.984;5.650;2023-12-22T10:24:36;6.60;;;1.83;;
44822;SDS011;51097;51.984;5.650;2023-12-22T10:27:09;8.27;;;1.77;;
44822;SDS011;51097;51.984;5.650;2023-12-22T10:29:36;8.40;;;1.90;;
44822;SDS011;51097;51.984;5.650;2023-12-22T10:32:03;9.52;;;2.08;;
44822;SDS011;51097;51.984;5.650;2023-12-22T10:34:29;4.93;;;1.60;;
44822;SDS011;51097;51.984;5.650;2023-12-22T10:36:56;9.48;;;1.80;;
44822;SDS011;51097;51.984;5.650;2023-12-22T10:39:22;11.32;;;1.67;;
44822;SDS011;51097;51.984;5.650;2023-12-22T10:41:47;8.43;;;1.92;;
44822;SDS011;51097;51.984;5.650;2023-12-22T10:44:14;9.70;;;1.90;;
44822;SDS011;51097;51.984;5.650;2023-12-22T10:46:42;11.65;;;1.55;;
44822;SDS011;51097;51.984;5.650;2023-12-22T10:49:08;3.08;;;1.35;;
44822;SDS011;51097;51.984;5.650;2023-12-22T10:51:33;2.88;;;1.23;;
44822;SDS011;51097;51.984;5.650;2023-12-22T10:53:59;11.05;;;1.73;;
44822;SDS011;51097;51.984;5.650;2023-12-22T10:56:24;6.93;;;2.33;;
44822;SDS011;51097;51.984;5.650;2023-12-22T10:58:50;6.75;;;1.88;;
44822;SDS011;51097;51.984;5.650;2023-12-22T11:01:20;7.90;;;1.40;;
44822;SDS011;51097;51.984;5.650;2023-12-22T11:03:48;3.65;;;1.10;;
44822;SDS011;51097;51.984;5.650;2023-12-22T11:06:16;5.80;;;2.15;;
44822;SDS011;51097;51.984;5.650;2023-12-22T11:08:42;6.47;;;1.50;;
44822;SDS011;51097;51.984;5.650;2023-12-22T11:11:13;5.68;;;1.60;;
44822;SDS011;51097;51.984;5.650;2023-12-22T11:13:45;2.85;;;1.15;;
44822;SDS011;51097;51.984;5.650;2023-12-22T11:16:12;7.93;;;1.42;;
44822;SDS011;51097;51.984;5.650;2023-12-22T11:18:39;10.90;;;1.52;;
44822;SDS011;51097;51.984;5.650;2023-12-22T11:21:06;7.25;;;1.20;;
44822;SDS011;51097;51.984;5.650;2023-12-22T11:23:34;3.65;;;1.10;;
44822;SDS011;51097;51.984;5.650;2023-12-22T11:26:02;6.60;;;1.63;;
44822;SDS011;51097;51.984;5.650;2023-12-22T11:28:30;4.50;;;1.52;;
44822;SDS011;51097;51.984;5.650;2023-12-22T11:30:57;6.80;;;1.25;;
44822;SDS011;51097;51.984;5.650;2023-12-22T11:33:24;1.92;;;0.95;;
44822;SDS011;51097;51.984;5.650;2023-12-22T11:35:52;7.50;;;1.20;;
44822;SDS011;51097;51.984;5.650;2023-12-22T11:38:20;11.70;;;1.58;;
44822;SDS011;51097;51.984;5.650;2023-12-22T11:40:46;6.30;;;1.48;;
44822;SDS011;51097;51.984;5.650;2023-12-22T11:43:16;2.70;;;1.20;;
44822;SDS011;51097;51.984;5.650;2023-12-22T11:45:43;6.72;;;1.67;;
44822;SDS011;51097;51.984;5.650;2023-12-22T11:48:09;11.45;;;1.75;;
44822;SDS011;51097;51.984;5.650;2023-12-22T11:50:35;6.50;;;2.13;;
44822;SDS011;51097;51.984;5.650;2023-12-22T11:53:22;6.75;;;1.98;;
44822;SDS011;51097;51.984;5.650;2023-12-22T11:55:58;8.55;;;1.55;;
44822;SDS011;51097;51.984;5.650;2023-12-22T11:58:42;6.80;;;1.83;;
44822;SDS011;51097;51.984;5.650;2023-12-22T12:08:52;5.13;;;1.55;;
44822;SDS011;51097;51.984;5.650;2023-12-22T12:11:18;5.63;;;1.65;;
44822;SDS011;51097;51.984;5.650;2023-12-22T12:13:45;7.70;;;1.17;;
44822;SDS011;51097;51.984;5.650;2023-12-22T12:16:12;3.42;;;1.20;;
44822;SDS011;51097;51.984;5.650;2023-12-22T12:18:39;5.00;;;1.27;;
44822;SDS011;51097;51.984;5.650;2023-12-22T12:21:08;7.13;;;1.83;;
44822;SDS011;51097;51.984;5.650;2023-12-22T12:23:37;9.75;;;1.40;;
44822;SDS011;51097;51.984;5.650;2023-12-22T12:26:06;8.07;;;1.63;;
44822;SDS011;51097;51.984;5.650;2023-12-22T12:28:33;6.80;;;1.98;;
44822;SDS011;51097;51.984;5.650;2023-12-22T12:31:04;4.70;;;1.25;;
44822;SDS011;51097;51.984;5.650;2023-12-22T12:33:31;10.18;;;2.17;;
44822;SDS011;51097;51.984;5.650;2023-12-22T12:35:58;6.20;;;1.30;;
44822;SDS011;51097;51.984;5.650;2023-12-22T12:38:28;7.50;;;1.42;;
44822;SDS011;51097;51.984;5.650;2023-12-22T12:41:40;7.20;;;1.58;;
44822;SDS011;51097;51.984;5.650;2023-12-22T12:44:08;4.57;;;0.95;;
44822;SDS011;51097;51.984;5.650;2023-12-22T12:46:35;6.40;;;1.52;;
44822;SDS011;51097;51.984;5.650;2023-12-22T12:49:03;5.18;;;1.33;;
44822;SDS011;51097;51.984;5.650;2023-12-22T12:51:30;5.25;;;1.60;;
44822;SDS011;51097;51.984;5.650;2023-12-22T12:56:25;6.78;;;1.80;;
44822;SDS011;51097;51.984;5.650;2023-12-22T12:58:51;9.93;;;2.17;;
44822;SDS011;51097;51.984;5.650;2023-12-22T13:01:17;4.68;;;1.02;;
44822;SDS011;51097;51.984;5.650;2023-12-22T13:03:53;5.07;;;1.20;;
44822;SDS011;51097;51.984;5.650;2023-12-22T13:06:19;10.57;;;1.48;;
44822;SDS011;51097;51.984;5.650;2023-12-22T13:08:51;6.22;;;1.48;;
44822;SDS011;51097;51.984;5.650;2023-12-22T13:11:27;11.18;;;1.27;;
44822;SDS011;51097;51.984;5.650;2023-12-22T13:13:56;5.45;;;1.50;;
44822;SDS011;51097;51.984;5.650;2023-12-22T13:16:22;5.57;;;2.70;;
44822;SDS011;51097;51.984;5.650;2023-12-22T13:18:54;10.88;;;2.05;;
44822;SDS011;51097;51.984;5.650;2023-12-22T13:21:20;8.05;;;1.58;;
44822;SDS011;51097;51.984;5.650;2023-12-22T13:23:46;7.95;;;1.58;;
44822;SDS011;51097;51.984;5.650;2023-12-22T13:26:18;7.25;;;1.83;;
44822;SDS011;51097;51.984;5.650;2023-12-22T13:28:44;2.80;;;1.20;;
44822;SDS011;51097;51.984;5.650;2023-12-22T13:31:10;9.02;;;2.13;;
44822;SDS011;51097;51.984;5.650;2023-12-22T13:33:39;3.58;;;1.67;;
44822;SDS011;51097;51.984;5.650;2023-12-22T13:36:05;8.57;;;3.17;;
44822;SDS011;51097;51.984;5.650;2023-12-22T13:38:31;9.15;;;1.92;;
44822;SDS011;51097;51.984;5.650;2023-12-22T13:40:58;7.57;;;1.10;;
44822;SDS011;51097;51.984;5.650;2023-12-22T13:43:29;8.75;;;1.50;;
44822;SDS011;51097;51.984;5.650;2023-12-22T13:45:55;8.05;;;1.73;;
44822;SDS011;51097;51.984;5.650;2023-12-22T13:48:22;5.75;;;1.40;;
44822;SDS011;51097;51.984;5.650;2023-12-22T13:50:56;6.30;;;1.33;;
44822;SDS011;51097;51.984;5.650;2023-12-22T13:53:23;5.45;;;1.42;;
44822;SDS011;51097;51.984;5.650;2023-12-22T13:55:58;5.38;;;1.42;;
44822;SDS011;51097;51.984;5.650;2023-12-22T13:58:24;9.85;;;1.85;;
44822;SDS011;51097;51.984;5.650;2023-12-22T14:00:50;5.80;;;1.23;;
44822;SDS011;51097;51.984;5.650;2023-12-22T14:03:17;6.10;;;2.53;;
44822;SDS011;51097;51.984;5.650;2023-12-22T14:05:46;13.70;;;2.70;;
44822;SDS011;51097;51.984;5.650;2023-12-22T14:08:13;5.90;;;1.23;;
44822;SDS011;51097;51.984;5.650;2023-12-22T14:10:44;3.88;;;0.85;;
44822;SDS011;51097;51.984;5.650;2023-12-22T14:13:10;5.35;;;1.17;;
44822;SDS011;51097;51.984;5.650;2023-12-22T14:15:36;5.97;;;1.30;;
44822;SDS011;51097;51.984;5.650;2023-12-22T14:18:02;3.72;;;1.25;;
44822;SDS011;51097;51.984;5.650;2023-12-22T14:20:27;4.85;;;1.42;;
44822;SDS011;51097;51.984;5.650;2023-12-22T14:22:53;3.95;;;1.40;;
44822;SDS011;51097;51.984;5.650;2023-12-22T14:25:18;5.72;;;1.55;;
44822;SDS011;51097;51.984;5.650;2023-12-22T14:27:44;5.78;;;1.30;;
44822;SDS011;51097;51.984;5.650;2023-12-22T14:30:10;5.13;;;1.50;;
44822;SDS011;51097;51.984;5.650;2023-12-22T14:32:36;5.28;;;1.15;;
44822;SDS011;51097;51.984;5.650;2023-12-22T14:35:01;6.90;;;1.33;;
44822;SDS011;51097;51.984;5.650;2023-12-22T14:37:27;8.82;;;1.80;;
44822;SDS011;51097;51.984;5.650;2023-12-22T14:39:53;6.28;;;1.83;;
44822;SDS011;51097;51.984;5.650;2023-12-22T14:42:18;7.00;;;1.30;;
44822;SDS011;51097;51.984;5.650;2023-12-22T14:44:44;10.25;;;1.73;;
44822;SDS011;51097;51.984;5.650;2023-12-22T14:47:10;9.80;;;1.70;;
44822;SDS011;51097;51.984;5.650;2023-12-22T14:49:35;11.45;;;2.15;;